sensor_id;sensor_type;location;lat;lon;timestamp;P1;durP1;ratioP1;P2;durP2;ratioP2
2710;SDS011;20721;47.402;8.550;2022-10-16T00:00:40;3.55;;;3.55;;
2710;SDS011;20721;47.402;8.550;2022-10-16T00:02:39;3.91;;;3.91;;
2710;SDS011;20721;47.402;8.550;2022-10-16T00:03:41;3.70;;;3.70;;
2710;SDS011;20721;47.402;8.550;2022-10-16T00:04:39;3.15;;;3.15;;
2710;SDS011;20721;47.402;8.550;2022-10-16T00:06:40;3.49;;;3.49;;
2710;SDS011;20721;47.402;8.550;2022-10-16T00:07:39;3.32;;;3.32;;
2710;SDS011;20721;47.402;8.550;2022-10-16T00:10:39;3.68;;;3.68;;
2710;SDS011;20721;47.402;8.550;2022-10-16T00:11:41;3.52;;;3.52;;
2710;SDS011;20721;47.402;8.550;2022-10-16T00:12:39;3.56;;;3.56;;
2710;SDS011;20721;47.402;8.550;2022-10-16T00:13:41;3.46;;;3.46;;
2710;SDS011;20721;47.402;8.550;2022-10-16T00:14:39;3.52;;;3.52;;
2710;SDS011;20721;47.402;8.550;2022-10-16T00:15:40;3.43;;;3.43;;
2710;SDS011;20721;47.402;8.550;2022-10-16T00:16:40;3.36;;;3.36;;
2710;SDS011;20721;47.402;8.550;2022-10-16T00:17:40;3.39;;;3.39;;
2710;SDS011;20721;47.402;8.550;2022-10-16T00:18:40;2.76;;;2.76;;
2710;SDS011;20721;47.402;8.550;2022-10-16T00:19:39;3.02;;;3.02;;
2710;SDS011;20721;47.402;8.550;2022-10-16T00:20:43;3.23;;;3.23;;
2710;SDS011;20721;47.402;8.550;2022-10-16T00:22:39;3.10;;;3.10;;
2710;SDS011;20721;47.402;8.550;2022-10-16T00:24:39;3.52;;;3.52;;
2710;SDS011;20721;47.402;8.550;2022-10-16T00:25:42;3.55;;;3.55;;
2710;SDS011;20721;47.402;8.550;2022-10-16T00:28:40;3.06;;;3.06;;
2710;SDS011;20721;47.402;8.550;2022-10-16T00:29:39;3.10;;;3.10;;
2710;SDS011;20721;47.402;8.550;2022-10-16T00:30:45;3.28;;;3.28;;
2710;SDS011;20721;47.402;8.550;2022-10-16T00:31:40;3.28;;;3.28;;
2710;SDS011;20721;47.402;8.550;2022-10-16T00:33:40;3.02;;;3.01;;
2710;SDS011;20721;47.402;8.550;2022-10-16T00:35:40;3.22;;;3.22;;
2710;SDS011;20721;47.402;8.550;2022-10-16T00:36:41;2.81;;;2.81;;
2710;SDS011;20721;47.402;8.550;2022-10-16T00:37:39;2.75;;;2.75;;
2710;SDS011;20721;47.402;8.550;2022-10-16T00:39:40;3.02;;;3.02;;
2710;SDS011;20721;47.402;8.550;2022-10-16T00:40:40;2.98;;;2.98;;
2710;SDS011;20721;47.402;8.550;2022-10-16T00:41:40;2.92;;;2.92;;
2710;SDS011;20721;47.402;8.550;2022-10-16T00:42:39;3.50;;;3.50;;
2710;SDS011;20721;47.402;8.550;2022-10-16T00:43:51;2.98;;;2.98;;
2710;SDS011;20721;47.402;8.550;2022-10-16T00:44:50;2.86;;;2.86;;
2710;SDS011;20721;47.402;8.550;2022-10-16T00:45:40;3.19;;;3.19;;
2710;SDS011;20721;47.402;8.550;2022-10-16T00:46:50;3.35;;;3.35;;
2710;SDS011;20721;47.402;8.550;2022-10-16T00:47:44;3.25;;;3.25;;
2710;SDS011;20721;47.402;8.550;2022-10-16T00:48:40;3.12;;;3.12;;
2710;SDS011;20721;47.402;8.550;2022-10-16T00:49:40;3.25;;;3.25;;
2710;SDS011;20721;47.402;8.550;2022-10-16T00:50:41;3.73;;;3.73;;
2710;SDS011;20721;47.402;8.550;2022-10-16T00:51:43;3.32;;;3.32;;
2710;SDS011;20721;47.402;8.550;2022-10-16T00:52:41;3.30;;;3.30;;
2710;SDS011;20721;47.402;8.550;2022-10-16T00:53:40;3.34;;;3.34;;
2710;SDS011;20721;47.402;8.550;2022-10-16T00:54:40;3.21;;;3.21;;
2710;SDS011;20721;47.402;8.550;2022-10-16T00:55:40;2.82;;;2.82;;
2710;SDS011;20721;47.402;8.550;2022-10-16T00:56:40;3.04;;;3.04;;
2710;SDS011;20721;47.402;8.550;2022-10-16T00:57:40;2.67;;;2.67;;
2710;SDS011;20721;47.402;8.550;2022-10-16T00:58:40;3.23;;;3.23;;
2710;SDS011;20721;47.402;8.550;2022-10-16T00:59:42;3.09;;;3.09;;
2710;SDS011;20721;47.402;8.550;2022-10-16T01:00:40;2.83;;;2.83;;
2710;SDS011;20721;47.402;8.550;2022-10-16T01:02:40;2.86;;;2.86;;
2710;SDS011;20721;47.402;8.550;2022-10-16T01:03:41;2.10;;;2.10;;
2710;SDS011;20721;47.402;8.550;2022-10-16T01:04:45;2.00;;;2.00;;
2710;SDS011;20721;47.402;8.550;2022-10-16T01:07:46;2.41;;;2.41;;
2710;SDS011;20721;47.402;8.550;2022-10-16T01:09:51;2.98;;;2.98;;
2710;SDS011;20721;47.402;8.550;2022-10-16T01:10:52;2.98;;;2.98;;
2710;SDS011;20721;47.402;8.550;2022-10-16T01:13:46;3.20;;;3.20;;
2710;SDS011;20721;47.402;8.550;2022-10-16T01:15:47;3.09;;;3.09;;
2710;SDS011;20721;47.402;8.550;2022-10-16T01:16:49;3.27;;;3.27;;
2710;SDS011;20721;47.402;8.550;2022-10-16T01:17:52;3.03;;;3.03;;
2710;SDS011;20721;47.402;8.550;2022-10-16T01:18:45;2.93;;;2.93;;
2710;SDS011;20721;47.402;8.550;2022-10-16T01:21:43;2.59;;;2.59;;
2710;SDS011;20721;47.402;8.550;2022-10-16T01:22:50;2.82;;;2.82;;
2710;SDS011;20721;47.402;8.550;2022-10-16T01:24:48;3.01;;;3.01;;
2710;SDS011;20721;47.402;8.550;2022-10-16T01:26:57;3.38;;;3.38;;
2710;SDS011;20721;47.402;8.550;2022-10-16T01:27:44;3.43;;;3.43;;
2710;SDS011;20721;47.402;8.550;2022-10-16T01:28:52;3.34;;;3.34;;
2710;SDS011;20721;47.402;8.550;2022-10-16T01:30:42;2.56;;;2.56;;
2710;SDS011;20721;47.402;8.550;2022-10-16T01:31:43;3.14;;;3.14;;
2710;SDS011;20721;47.402;8.550;2022-10-16T01:32:50;3.89;;;3.89;;
2710;SDS011;20721;47.402;8.550;2022-10-16T01:33:45;3.37;;;3.37;;
2710;SDS011;20721;47.402;8.550;2022-10-16T01:34:47;3.66;;;3.66;;
2710;SDS011;20721;47.402;8.550;2022-10-16T01:35:52;3.90;;;3.90;;
2710;SDS011;20721;47.402;8.550;2022-10-16T01:38:46;3.96;;;3.96;;
2710;SDS011;20721;47.402;8.550;2022-10-16T01:39:42;3.55;;;3.55;;
2710;SDS011;20721;47.402;8.550;2022-10-16T01:41:45;3.50;;;3.50;;
2710;SDS011;20721;47.402;8.550;2022-10-16T01:45:42;3.67;;;3.67;;
2710;SDS011;20721;47.402;8.550;2022-10-16T01:46:41;3.26;;;3.26;;
2710;SDS011;20721;47.402;8.550;2022-10-16T01:48:42;3.15;;;3.15;;
2710;SDS011;20721;47.402;8.550;2022-10-16T01:49:43;3.32;;;3.32;;
2710;SDS011;20721;47.402;8.550;2022-10-16T01:50:43;3.38;;;3.38;;
2710;SDS011;20721;47.402;8.550;2022-10-16T01:51:40;3.46;;;3.46;;
2710;SDS011;20721;47.402;8.550;2022-10-16T01:54:42;3.28;;;3.28;;
2710;SDS011;20721;47.402;8.550;2022-10-16T01:58:49;3.53;;;3.53;;
2710;SDS011;20721;47.402;8.550;2022-10-16T01:59:44;3.89;;;3.89;;
2710;SDS011;20721;47.402;8.550;2022-10-16T02:00:43;3.89;;;3.89;;
2710;SDS011;20721;47.402;8.550;2022-10-16T02:01:42;4.33;;;4.33;;
2710;SDS011;20721;47.402;8.550;2022-10-16T02:02:41;4.42;;;4.42;;
2710;SDS011;20721;47.402;8.550;2022-10-16T02:03:41;4.42;;;4.42;;
2710;SDS011;20721;47.402;8.550;2022-10-16T02:04:44;3.61;;;3.61;;
2710;SDS011;20721;47.402;8.550;2022-10-16T02:05:46;3.97;;;3.97;;
2710;SDS011;20721;47.402;8.550;2022-10-16T02:06:40;4.65;;;4.65;;
2710;SDS011;20721;47.402;8.550;2022-10-16T02:07:40;3.90;;;3.90;;
2710;SDS011;20721;47.402;8.550;2022-10-16T02:08:40;3.75;;;3.75;;
2710;SDS011;20721;47.402;8.550;2022-10-16T02:09:42;4.78;;;4.78;;
2710;SDS011;20721;47.402;8.550;2022-10-16T02:10:41;4.18;;;4.18;;
2710;SDS011;20721;47.402;8.550;2022-10-16T02:11:40;4.73;;;4.73;;
2710;SDS011;20721;47.402;8.550;2022-10-16T02:12:44;4.71;;;4.71;;
2710;SDS011;20721;47.402;8.550;2022-10-16T02:14:40;4.04;;;4.04;;
2710;SDS011;20721;47.402;8.550;2022-10-16T02:17:40;4.20;;;4.20;;
2710;SDS011;20721;47.402;8.550;2022-10-16T02:18:40;4.44;;;4.44;;
2710;SDS011;20721;47.402;8.550;2022-10-16T02:19:40;4.06;;;4.06;;
2710;SDS011;20721;47.402;8.550;2022-10-16T02:21:51;4.01;;;4.01;;
2710;SDS011;20721;47.402;8.550;2022-10-16T02:22:45;4.15;;;4.15;;
2710;SDS011;20721;47.402;8.550;2022-10-16T02:25:41;5.56;;;5.56;;
2710;SDS011;20721;47.402;8.550;2022-10-16T02:27:00;9.74;;;9.74;;
2710;SDS011;20721;47.402;8.550;2022-10-16T02:31:43;4.39;;;4.39;;
2710;SDS011;20721;47.402;8.550;2022-10-16T02:32:42;4.08;;;4.08;;
2710;SDS011;20721;47.402;8.550;2022-10-16T02:33:41;3.47;;;3.47;;
2710;SDS011;20721;47.402;8.550;2022-10-16T02:34:41;4.05;;;4.05;;
2710;SDS011;20721;47.402;8.550;2022-10-16T02:35:41;4.05;;;4.05;;
2710;SDS011;20721;47.402;8.550;2022-10-16T02:36:41;3.53;;;3.53;;
2710;SDS011;20721;47.402;8.550;2022-10-16T02:37:40;4.08;;;4.08;;
2710;SDS011;20721;47.402;8.550;2022-10-16T02:39:40;3.60;;;3.60;;
2710;SDS011;20721;47.402;8.550;2022-10-16T02:40:40;3.92;;;3.92;;
2710;SDS011;20721;47.402;8.550;2022-10-16T02:41:40;4.77;;;4.77;;
2710;SDS011;20721;47.402;8.550;2022-10-16T02:42:44;4.27;;;4.27;;
2710;SDS011;20721;47.402;8.550;2022-10-16T02:43:40;4.06;;;4.06;;
2710;SDS011;20721;47.402;8.550;2022-10-16T02:44:40;3.68;;;3.68;;
2710;SDS011;20721;47.402;8.550;2022-10-16T02:56:40;4.11;;;4.11;;
2710;SDS011;20721;47.402;8.550;2022-10-16T02:57:41;4.61;;;4.61;;
2710;SDS011;20721;47.402;8.550;2022-10-16T02:58:40;4.39;;;4.39;;
2710;SDS011;20721;47.402;8.550;2022-10-16T02:59:40;4.18;;;4.18;;
2710;SDS011;20721;47.402;8.550;2022-10-16T03:00:40;4.21;;;4.21;;
2710;SDS011;20721;47.402;8.550;2022-10-16T03:01:40;4.07;;;4.07;;
2710;SDS011;20721;47.402;8.550;2022-10-16T03:02:40;4.38;;;4.38;;
2710;SDS011;20721;47.402;8.550;2022-10-16T03:03:40;4.06;;;4.06;;
2710;SDS011;20721;47.402;8.550;2022-10-16T03:04:40;3.61;;;3.61;;
2710;SDS011;20721;47.402;8.550;2022-10-16T03:05:40;4.11;;;4.11;;
2710;SDS011;20721;47.402;8.550;2022-10-16T03:06:40;3.68;;;3.68;;
2710;SDS011;20721;47.402;8.550;2022-10-16T03:08:40;4.02;;;4.02;;
2710;SDS011;20721;47.402;8.550;2022-10-16T03:10:40;3.62;;;3.62;;
2710;SDS011;20721;47.402;8.550;2022-10-16T03:11:40;3.32;;;3.32;;
2710;SDS011;20721;47.402;8.550;2022-10-16T03:12:40;3.45;;;3.45;;
2710;SDS011;20721;47.402;8.550;2022-10-16T03:13:40;3.03;;;3.03;;
2710;SDS011;20721;47.402;8.550;2022-10-16T03:14:40;3.18;;;3.18;;
2710;SDS011;20721;47.402;8.550;2022-10-16T03:15:40;2.66;;;2.66;;
2710;SDS011;20721;47.402;8.550;2022-10-16T03:16:40;2.43;;;2.43;;
2710;SDS011;20721;47.402;8.550;2022-10-16T03:17:41;2.71;;;2.71;;
2710;SDS011;20721;47.402;8.550;2022-10-16T03:18:40;2.80;;;2.80;;
2710;SDS011;20721;47.402;8.550;2022-10-16T03:19:40;2.81;;;2.81;;
2710;SDS011;20721;47.402;8.550;2022-10-16T03:20:40;3.10;;;3.10;;
2710;SDS011;20721;47.402;8.550;2022-10-16T03:21:40;2.95;;;2.95;;
2710;SDS011;20721;47.402;8.550;2022-10-16T03:22:40;3.12;;;3.12;;
2710;SDS011;20721;47.402;8.550;2022-10-16T03:23:41;3.40;;;3.40;;
2710;SDS011;20721;47.402;8.550;2022-10-16T03:25:40;3.80;;;3.80;;
2710;SDS011;20721;47.402;8.550;2022-10-16T03:28:40;3.45;;;3.45;;
2710;SDS011;20721;47.402;8.550;2022-10-16T03:31:40;3.46;;;3.46;;
2710;SDS011;20721;47.402;8.550;2022-10-16T03:33:40;3.73;;;3.73;;
2710;SDS011;20721;47.402;8.550;2022-10-16T03:34:40;4.17;;;4.17;;
2710;SDS011;20721;47.402;8.550;2022-10-16T03:35:50;3.86;;;3.86;;
2710;SDS011;20721;47.402;8.550;2022-10-16T03:36:40;3.70;;;3.70;;
2710;SDS011;20721;47.402;8.550;2022-10-16T03:37:40;3.76;;;3.76;;
2710;SDS011;20721;47.402;8.550;2022-10-16T03:38:40;3.42;;;3.42;;
2710;SDS011;20721;47.402;8.550;2022-10-16T03:39:40;3.39;;;3.39;;
2710;SDS011;20721;47.402;8.550;2022-10-16T03:40:42;3.24;;;3.24;;
2710;SDS011;20721;47.402;8.550;2022-10-16T03:41:40;3.73;;;3.73;;
2710;SDS011;20721;47.402;8.550;2022-10-16T03:45:40;3.24;;;3.24;;
2710;SDS011;20721;47.402;8.550;2022-10-16T03:46:40;3.37;;;3.37;;
2710;SDS011;20721;47.402;8.550;2022-10-16T03:47:42;3.83;;;3.83;;
2710;SDS011;20721;47.402;8.550;2022-10-16T03:48:40;4.03;;;4.03;;
2710;SDS011;20721;47.402;8.550;2022-10-16T03:49:40;4.36;;;4.36;;
2710;SDS011;20721;47.402;8.550;2022-10-16T03:50:40;3.99;;;3.99;;
2710;SDS011;20721;47.402;8.550;2022-10-16T03:51:40;4.37;;;4.37;;
2710;SDS011;20721;47.402;8.550;2022-10-16T03:55:41;3.84;;;3.84;;
2710;SDS011;20721;47.402;8.550;2022-10-16T03:56:40;3.60;;;3.60;;
2710;SDS011;20721;47.402;8.550;2022-10-16T03:57:40;3.46;;;3.46;;
2710;SDS011;20721;47.402;8.550;2022-10-16T03:58:40;3.37;;;3.37;;
2710;SDS011;20721;47.402;8.550;2022-10-16T03:59:40;4.02;;;4.02;;
2710;SDS011;20721;47.402;8.550;2022-10-16T04:00:41;3.54;;;3.54;;
2710;SDS011;20721;47.402;8.550;2022-10-16T04:01:40;2.94;;;2.94;;
2710;SDS011;20721;47.402;8.550;2022-10-16T04:02:40;3.09;;;3.09;;
2710;SDS011;20721;47.402;8.550;2022-10-16T04:03:41;3.62;;;3.62;;
2710;SDS011;20721;47.402;8.550;2022-10-16T04:04:40;3.16;;;3.16;;
2710;SDS011;20721;47.402;8.550;2022-10-16T04:05:40;3.66;;;3.66;;
2710;SDS011;20721;47.402;8.550;2022-10-16T04:06:40;3.06;;;3.06;;
2710;SDS011;20721;47.402;8.550;2022-10-16T04:08:01;3.41;;;3.41;;
2710;SDS011;20721;47.402;8.550;2022-10-16T04:08:11;3.41;;;3.41;;
2710;SDS011;20721;47.402;8.550;2022-10-16T04:08:42;3.47;;;3.47;;
2710;SDS011;20721;47.402;8.550;2022-10-16T04:09:41;3.99;;;3.99;;
2710;SDS011;20721;47.402;8.550;2022-10-16T04:11:40;3.24;;;3.24;;
2710;SDS011;20721;47.402;8.550;2022-10-16T04:12:40;3.39;;;3.39;;
2710;SDS011;20721;47.402;8.550;2022-10-16T04:13:40;3.33;;;3.33;;
2710;SDS011;20721;47.402;8.550;2022-10-16T04:17:40;3.45;;;3.45;;
2710;SDS011;20721;47.402;8.550;2022-10-16T04:20:40;3.39;;;3.39;;
2710;SDS011;20721;47.402;8.550;2022-10-16T04:21:40;3.33;;;3.33;;
2710;SDS011;20721;47.402;8.550;2022-10-16T04:23:41;3.21;;;3.21;;
2710;SDS011;20721;47.402;8.550;2022-10-16T04:25:40;3.05;;;3.05;;
2710;SDS011;20721;47.402;8.550;2022-10-16T04:26:40;3.49;;;3.49;;
2710;SDS011;20721;47.402;8.550;2022-10-16T04:27:41;3.89;;;3.89;;
2710;SDS011;20721;47.402;8.550;2022-10-16T04:28:40;3.88;;;3.88;;
2710;SDS011;20721;47.402;8.550;2022-10-16T04:29:40;4.14;;;4.14;;
2710;SDS011;20721;47.402;8.550;2022-10-16T04:31:40;3.20;;;3.20;;
2710;SDS011;20721;47.402;8.550;2022-10-16T04:32:40;3.53;;;3.53;;
2710;SDS011;20721;47.402;8.550;2022-10-16T04:33:42;2.89;;;2.89;;
2710;SDS011;20721;47.402;8.550;2022-10-16T04:34:40;3.74;;;3.74;;
2710;SDS011;20721;47.402;8.550;2022-10-16T04:36:40;3.57;;;3.57;;
2710;SDS011;20721;47.402;8.550;2022-10-16T04:37:40;3.67;;;3.67;;
2710;SDS011;20721;47.402;8.550;2022-10-16T04:38:40;3.20;;;3.20;;
2710;SDS011;20721;47.402;8.550;2022-10-16T04:40:43;3.41;;;3.41;;
2710;SDS011;20721;47.402;8.550;2022-10-16T04:41:40;3.22;;;3.22;;
2710;SDS011;20721;47.402;8.550;2022-10-16T04:42:40;3.42;;;3.42;;
2710;SDS011;20721;47.402;8.550;2022-10-16T04:43:40;3.67;;;3.67;;
2710;SDS011;20721;47.402;8.550;2022-10-16T04:44:40;4.00;;;4.00;;
2710;SDS011;20721;47.402;8.550;2022-10-16T04:45:40;3.39;;;3.39;;
2710;SDS011;20721;47.402;8.550;2022-10-16T04:46:41;3.85;;;3.85;;
2710;SDS011;20721;47.402;8.550;2022-10-16T04:47:40;3.61;;;3.61;;
2710;SDS011;20721;47.402;8.550;2022-10-16T04:48:40;4.21;;;4.21;;
2710;SDS011;20721;47.402;8.550;2022-10-16T04:49:40;3.88;;;3.88;;
2710;SDS011;20721;47.402;8.550;2022-10-16T04:51:40;3.94;;;3.94;;
2710;SDS011;20721;47.402;8.550;2022-10-16T04:52:41;4.17;;;4.17;;
2710;SDS011;20721;47.402;8.550;2022-10-16T04:55:41;3.48;;;3.48;;
2710;SDS011;20721;47.402;8.550;2022-10-16T04:57:40;4.01;;;4.01;;
2710;SDS011;20721;47.402;8.550;2022-10-16T04:58:40;4.18;;;4.18;;
2710;SDS011;20721;47.402;8.550;2022-10-16T05:00:41;3.47;;;3.47;;
2710;SDS011;20721;47.402;8.550;2022-10-16T05:01:40;3.69;;;3.69;;
2710;SDS011;20721;47.402;8.550;2022-10-16T05:02:40;3.31;;;3.31;;
2710;SDS011;20721;47.402;8.550;2022-10-16T05:03:40;4.09;;;4.09;;
2710;SDS011;20721;47.402;8.550;2022-10-16T05:06:40;3.80;;;3.80;;
2710;SDS011;20721;47.402;8.550;2022-10-16T05:07:40;3.97;;;3.97;;
2710;SDS011;20721;47.402;8.550;2022-10-16T05:08:40;4.98;;;4.98;;
2710;SDS011;20721;47.402;8.550;2022-10-16T05:09:40;3.88;;;3.88;;
2710;SDS011;20721;47.402;8.550;2022-10-16T05:10:41;4.08;;;4.08;;
2710;SDS011;20721;47.402;8.550;2022-10-16T05:12:40;3.88;;;3.88;;
2710;SDS011;20721;47.402;8.550;2022-10-16T05:13:40;3.79;;;3.79;;
2710;SDS011;20721;47.402;8.550;2022-10-16T05:14:41;3.82;;;3.82;;
2710;SDS011;20721;47.402;8.550;2022-10-16T05:15:41;3.42;;;3.42;;
2710;SDS011;20721;47.402;8.550;2022-10-16T05:16:41;4.42;;;4.42;;
2710;SDS011;20721;47.402;8.550;2022-10-16T05:18:40;3.27;;;3.27;;
2710;SDS011;20721;47.402;8.550;2022-10-16T05:19:40;4.25;;;4.25;;
2710;SDS011;20721;47.402;8.550;2022-10-16T05:20:41;4.00;;;4.00;;
2710;SDS011;20721;47.402;8.550;2022-10-16T05:21:40;4.59;;;4.59;;
2710;SDS011;20721;47.402;8.550;2022-10-16T05:22:40;4.06;;;4.06;;
2710;SDS011;20721;47.402;8.550;2022-10-16T05:24:40;2.97;;;2.97;;
2710;SDS011;20721;47.402;8.550;2022-10-16T05:25:40;2.71;;;2.71;;
2710;SDS011;20721;47.402;8.550;2022-10-16T05:26:40;2.54;;;2.54;;
2710;SDS011;20721;47.402;8.550;2022-10-16T05:28:40;2.76;;;2.76;;
2710;SDS011;20721;47.402;8.550;2022-10-16T05:29:40;2.76;;;2.75;;
2710;SDS011;20721;47.402;8.550;2022-10-16T05:32:40;3.19;;;3.19;;
2710;SDS011;20721;47.402;8.550;2022-10-16T05:35:40;2.99;;;2.99;;
2710;SDS011;20721;47.402;8.550;2022-10-16T05:36:40;3.38;;;3.38;;
2710;SDS011;20721;47.402;8.550;2022-10-16T05:37:40;3.50;;;3.50;;
2710;SDS011;20721;47.402;8.550;2022-10-16T05:38:40;3.59;;;3.59;;
2710;SDS011;20721;47.402;8.550;2022-10-16T05:39:40;3.05;;;3.05;;
2710;SDS011;20721;47.402;8.550;2022-10-16T05:40:40;3.02;;;3.02;;
2710;SDS011;20721;47.402;8.550;2022-10-16T05:41:41;3.30;;;3.30;;
2710;SDS011;20721;47.402;8.550;2022-10-16T05:42:40;3.12;;;3.12;;
2710;SDS011;20721;47.402;8.550;2022-10-16T05:43:41;3.15;;;3.15;;
2710;SDS011;20721;47.402;8.550;2022-10-16T05:44:40;3.27;;;3.27;;
2710;SDS011;20721;47.402;8.550;2022-10-16T05:45:40;3.58;;;3.58;;
2710;SDS011;20721;47.402;8.550;2022-10-16T05:46:40;3.44;;;3.44;;
2710;SDS011;20721;47.402;8.550;2022-10-16T05:47:40;3.07;;;3.07;;
2710;SDS011;20721;47.402;8.550;2022-10-16T05:49:40;3.91;;;3.91;;
2710;SDS011;20721;47.402;8.550;2022-10-16T05:51:40;4.72;;;4.72;;
2710;SDS011;20721;47.402;8.550;2022-10-16T05:52:40;4.56;;;4.56;;
2710;SDS011;20721;47.402;8.550;2022-10-16T05:53:42;3.69;;;3.69;;
2710;SDS011;20721;47.402;8.550;2022-10-16T05:54:42;3.35;;;3.35;;
2710;SDS011;20721;47.402;8.550;2022-10-16T05:55:40;2.85;;;2.85;;
2710;SDS011;20721;47.402;8.550;2022-10-16T05:56:40;3.42;;;3.42;;
2710;SDS011;20721;47.402;8.550;2022-10-16T05:57:41;2.99;;;2.99;;
2710;SDS011;20721;47.402;8.550;2022-10-16T05:58:42;3.51;;;3.51;;
2710;SDS011;20721;47.402;8.550;2022-10-16T05:59:40;2.35;;;2.35;;
2710;SDS011;20721;47.402;8.550;2022-10-16T06:00:42;2.37;;;2.37;;
2710;SDS011;20721;47.402;8.550;2022-10-16T06:01:41;1.94;;;1.94;;
2710;SDS011;20721;47.402;8.550;2022-10-16T06:02:40;2.08;;;2.08;;
2710;SDS011;20721;47.402;8.550;2022-10-16T06:03:40;1.80;;;1.80;;
2710;SDS011;20721;47.402;8.550;2022-10-16T06:05:40;2.45;;;2.45;;
2710;SDS011;20721;47.402;8.550;2022-10-16T06:06:41;2.17;;;2.17;;
2710;SDS011;20721;47.402;8.550;2022-10-16T06:12:40;2.71;;;2.71;;
2710;SDS011;20721;47.402;8.550;2022-10-16T06:13:40;2.26;;;2.26;;
2710;SDS011;20721;47.402;8.550;2022-10-16T06:14:40;2.05;;;2.05;;
2710;SDS011;20721;47.402;8.550;2022-10-16T06:15:42;2.10;;;2.10;;
2710;SDS011;20721;47.402;8.550;2022-10-16T06:16:40;1.97;;;1.97;;
2710;SDS011;20721;47.402;8.550;2022-10-16T06:18:40;2.16;;;2.16;;
2710;SDS011;20721;47.402;8.550;2022-10-16T06:19:41;2.11;;;2.11;;
2710;SDS011;20721;47.402;8.550;2022-10-16T06:20:40;1.99;;;1.99;;
2710;SDS011;20721;47.402;8.550;2022-10-16T06:21:40;2.13;;;2.13;;
2710;SDS011;20721;47.402;8.550;2022-10-16T06:22:41;2.63;;;2.63;;
2710;SDS011;20721;47.402;8.550;2022-10-16T06:23:40;2.43;;;2.43;;
2710;SDS011;20721;47.402;8.550;2022-10-16T06:24:40;2.39;;;2.39;;
2710;SDS011;20721;47.402;8.550;2022-10-16T06:25:41;1.81;;;1.81;;
2710;SDS011;20721;47.402;8.550;2022-10-16T06:26:41;2.26;;;2.26;;
2710;SDS011;20721;47.402;8.550;2022-10-16T06:27:40;2.38;;;2.38;;
2710;SDS011;20721;47.402;8.550;2022-10-16T06:28:40;2.14;;;2.14;;
2710;SDS011;20721;47.402;8.550;2022-10-16T06:29:40;1.94;;;1.94;;
2710;SDS011;20721;47.402;8.550;2022-10-16T06:30:41;2.09;;;2.09;;
2710;SDS011;20721;47.402;8.550;2022-10-16T06:31:43;2.68;;;2.68;;
2710;SDS011;20721;47.402;8.550;2022-10-16T06:32:40;2.45;;;2.45;;
2710;SDS011;20721;47.402;8.550;2022-10-16T06:33:41;2.92;;;2.92;;
2710;SDS011;20721;47.402;8.550;2022-10-16T06:34:40;2.86;;;2.86;;
2710;SDS011;20721;47.402;8.550;2022-10-16T06:35:42;3.27;;;3.27;;
2710;SDS011;20721;47.402;8.550;2022-10-16T06:36:40;3.08;;;3.08;;
2710;SDS011;20721;47.402;8.550;2022-10-16T06:37:42;2.69;;;2.69;;
2710;SDS011;20721;47.402;8.550;2022-10-16T06:38:41;3.22;;;3.22;;
2710;SDS011;20721;47.402;8.550;2022-10-16T06:39:40;3.68;;;3.68;;
2710;SDS011;20721;47.402;8.550;2022-10-16T06:40:40;3.48;;;3.48;;
2710;SDS011;20721;47.402;8.550;2022-10-16T06:42:41;3.42;;;3.42;;
2710;SDS011;20721;47.402;8.550;2022-10-16T06:43:45;3.76;;;3.76;;
2710;SDS011;20721;47.402;8.550;2022-10-16T06:44:40;3.95;;;3.95;;
2710;SDS011;20721;47.402;8.550;2022-10-16T06:45:40;3.71;;;3.71;;
2710;SDS011;20721;47.402;8.550;2022-10-16T06:46:40;3.69;;;3.69;;
2710;SDS011;20721;47.402;8.550;2022-10-16T06:47:40;3.47;;;3.47;;
2710;SDS011;20721;47.402;8.550;2022-10-16T06:48:41;3.77;;;3.77;;
2710;SDS011;20721;47.402;8.550;2022-10-16T06:49:40;4.77;;;4.77;;
2710;SDS011;20721;47.402;8.550;2022-10-16T06:50:40;4.80;;;4.80;;
2710;SDS011;20721;47.402;8.550;2022-10-16T06:51:42;4.78;;;4.74;;
2710;SDS011;20721;47.402;8.550;2022-10-16T06:52:40;4.06;;;4.06;;
2710;SDS011;20721;47.402;8.550;2022-10-16T06:53:52;3.81;;;3.81;;
2710;SDS011;20721;47.402;8.550;2022-10-16T06:54:50;3.30;;;3.30;;
2710;SDS011;20721;47.402;8.550;2022-10-16T06:55:40;3.47;;;3.47;;
2710;SDS011;20721;47.402;8.550;2022-10-16T06:56:41;3.70;;;3.70;;
2710;SDS011;20721;47.402;8.550;2022-10-16T06:57:40;3.76;;;3.76;;
2710;SDS011;20721;47.402;8.550;2022-10-16T06:58:41;3.63;;;3.63;;
2710;SDS011;20721;47.402;8.550;2022-10-16T06:59:40;3.79;;;3.79;;
2710;SDS011;20721;47.402;8.550;2022-10-16T07:00:40;3.16;;;3.16;;
2710;SDS011;20721;47.402;8.550;2022-10-16T07:01:41;3.82;;;3.82;;
2710;SDS011;20721;47.402;8.550;2022-10-16T07:02:40;4.56;;;4.56;;
2710;SDS011;20721;47.402;8.550;2022-10-16T07:03:41;3.90;;;3.90;;
2710;SDS011;20721;47.402;8.550;2022-10-16T07:04:40;3.86;;;3.86;;
2710;SDS011;20721;47.402;8.550;2022-10-16T07:05:41;4.54;;;4.54;;
2710;SDS011;20721;47.402;8.550;2022-10-16T07:06:42;5.10;;;5.10;;
2710;SDS011;20721;47.402;8.550;2022-10-16T07:07:40;4.18;;;4.18;;
2710;SDS011;20721;47.402;8.550;2022-10-16T07:08:44;3.53;;;3.53;;
2710;SDS011;20721;47.402;8.550;2022-10-16T07:09:41;3.55;;;3.55;;
2710;SDS011;20721;47.402;8.550;2022-10-16T07:10:41;3.46;;;3.46;;
2710;SDS011;20721;47.402;8.550;2022-10-16T07:11:41;3.62;;;3.62;;
2710;SDS011;20721;47.402;8.550;2022-10-16T07:12:40;3.60;;;3.60;;
2710;SDS011;20721;47.402;8.550;2022-10-16T07:13:43;3.39;;;3.39;;
2710;SDS011;20721;47.402;8.550;2022-10-16T07:14:42;3.74;;;3.74;;
2710;SDS011;20721;47.402;8.550;2022-10-16T07:15:41;3.67;;;3.67;;
2710;SDS011;20721;47.402;8.550;2022-10-16T07:16:42;3.48;;;3.48;;
2710;SDS011;20721;47.402;8.550;2022-10-16T07:17:40;3.59;;;3.59;;
2710;SDS011;20721;47.402;8.550;2022-10-16T07:18:42;3.36;;;3.36;;
2710;SDS011;20721;47.402;8.550;2022-10-16T07:19:44;2.85;;;2.85;;
2710;SDS011;20721;47.402;8.550;2022-10-16T07:20:40;3.29;;;3.29;;
2710;SDS011;20721;47.402;8.550;2022-10-16T07:21:42;3.69;;;3.69;;
2710;SDS011;20721;47.402;8.550;2022-10-16T07:22:40;3.11;;;3.11;;
2710;SDS011;20721;47.402;8.550;2022-10-16T07:23:41;4.11;;;4.11;;
2710;SDS011;20721;47.402;8.550;2022-10-16T07:24:41;3.56;;;3.56;;
2710;SDS011;20721;47.402;8.550;2022-10-16T07:25:40;3.26;;;3.26;;
2710;SDS011;20721;47.402;8.550;2022-10-16T07:26:43;3.28;;;3.28;;
2710;SDS011;20721;47.402;8.550;2022-10-16T07:28:42;3.81;;;3.81;;
2710;SDS011;20721;47.402;8.550;2022-10-16T07:29:41;4.16;;;4.16;;
2710;SDS011;20721;47.402;8.550;2022-10-16T07:30:44;4.26;;;4.26;;
2710;SDS011;20721;47.402;8.550;2022-10-16T07:31:41;4.21;;;4.21;;
2710;SDS011;20721;47.402;8.550;2022-10-16T07:32:41;3.86;;;3.86;;
2710;SDS011;20721;47.402;8.550;2022-10-16T07:33:42;3.97;;;3.97;;
2710;SDS011;20721;47.402;8.550;2022-10-16T07:34:41;4.10;;;4.10;;
2710;SDS011;20721;47.402;8.550;2022-10-16T07:35:49;4.34;;;4.34;;
2710;SDS011;20721;47.402;8.550;2022-10-16T07:36:41;3.42;;;3.42;;
2710;SDS011;20721;47.402;8.550;2022-10-16T07:37:44;3.86;;;3.86;;
2710;SDS011;20721;47.402;8.550;2022-10-16T07:38:41;3.36;;;3.36;;
2710;SDS011;20721;47.402;8.550;2022-10-16T07:39:41;3.94;;;3.94;;
2710;SDS011;20721;47.402;8.550;2022-10-16T07:40:41;4.12;;;4.12;;
2710;SDS011;20721;47.402;8.550;2022-10-16T07:41:42;3.31;;;3.31;;
2710;SDS011;20721;47.402;8.550;2022-10-16T07:42:41;3.52;;;3.52;;
2710;SDS011;20721;47.402;8.550;2022-10-16T07:43:45;3.96;;;3.96;;
2710;SDS011;20721;47.402;8.550;2022-10-16T07:44:41;3.65;;;3.65;;
2710;SDS011;20721;47.402;8.550;2022-10-16T07:45:47;3.73;;;3.73;;
2710;SDS011;20721;47.402;8.550;2022-10-16T07:46:41;3.65;;;3.65;;
2710;SDS011;20721;47.402;8.550;2022-10-16T07:47:41;3.84;;;3.84;;
2710;SDS011;20721;47.402;8.550;2022-10-16T07:48:42;3.48;;;3.48;;
2710;SDS011;20721;47.402;8.550;2022-10-16T07:49:41;3.48;;;3.48;;
2710;SDS011;20721;47.402;8.550;2022-10-16T07:50:41;3.21;;;3.21;;
2710;SDS011;20721;47.402;8.550;2022-10-16T07:51:43;3.54;;;3.54;;
2710;SDS011;20721;47.402;8.550;2022-10-16T07:52:41;3.35;;;3.35;;
2710;SDS011;20721;47.402;8.550;2022-10-16T07:53:41;3.81;;;3.81;;